sensor_id;sensor_type;location;lat;lon;timestamp;temperature;humidity
5174;DHT22;2606;50.934;6.934;2023-02-28T00:00:27;2.30;98.50
5174;DHT22;2606;50.934;6.934;2023-02-28T00:02:53;2.30;98.70
5174;DHT22;2606;50.934;6.934;2023-02-28T00:05:20;2.30;98.50
5174;DHT22;2606;50.934;6.934;2023-02-28T00:07:47;2.30;98.60
5174;DHT22;2606;50.934;6.934;2023-02-28T00:10:15;2.30;98.50
5174;DHT22;2606;50.934;6.934;2023-02-28T00:12:44;2.30;98.50
5174;DHT22;2606;50.934;6.934;2023-02-28T00:15:11;2.20;98.50
5174;DHT22;2606;50.934;6.934;2023-02-28T00:17:37;2.20;98.50
5174;DHT22;2606;50.934;6.934;2023-02-28T00:20:04;2.20;98.60
5174;DHT22;2606;50.934;6.934;2023-02-28T00:22:31;2.20;98.70
5174;DHT22;2606;50.934;6.934;2023-02-28T00:24:57;2.20;98.80
5174;DHT22;2606;50.934;6.934;2023-02-28T00:27:23;2.10;99.00
5174;DHT22;2606;50.934;6.934;2023-02-28T00:30:01;2.10;99.10
5174;DHT22;2606;50.934;6.934;2023-02-28T00:39:59;2.10;99.30
5174;DHT22;2606;50.934;6.934;2023-02-28T00:42:44;2.00;99.20
5174;DHT22;2606;50.934;6.934;2023-02-28T00:48:51;2.00;99.40
5174;DHT22;2606;50.934;6.934;2023-02-28T00:53:58;2.00;99.50
5174;DHT22;2606;50.934;6.934;2023-02-28T00:56:26;2.00;99.60
5174;DHT22;2606;50.934;6.934;2023-02-28T00:58:52;2.00;99.70
5174;DHT22;2606;50.934;6.934;2023-02-28T01:04:07;1.90;99.70
5174;DHT22;2606;50.934;6.934;2023-02-28T01:06:32;1.90;99.90
5174;DHT22;2606;50.934;6.934;2023-02-28T01:08:59;1.90;99.80
5174;DHT22;2606;50.934;6.934;2023-02-28T01:11:24;1.90;99.90
5174;DHT22;2606;50.934;6.934;2023-02-28T01:13:50;1.90;99.80
5174;DHT22;2606;50.934;6.934;2023-02-28T01:16:16;1.90;99.80
5174;DHT22;2606;50.934;6.934;2023-02-28T01:18:42;1.90;99.80
5174;DHT22;2606;50.934;6.934;2023-02-28T01:21:14;1.90;99.80
5174;DHT22;2606;50.934;6.934;2023-02-28T01:23:40;1.90;99.80
5174;DHT22;2606;50.934;6.934;2023-02-28T01:26:18;1.90;99.80
5174;DHT22;2606;50.934;6.934;2023-02-28T01:28:44;1.90;99.90
5174;DHT22;2606;50.934;6.934;2023-02-28T01:31:11;1.80;99.90
5174;DHT22;2606;50.934;6.934;2023-02-28T01:33:37;1.80;99.90
5174;DHT22;2606;50.934;6.934;2023-02-28T01:38:30;1.80;99.90
5174;DHT22;2606;50.934;6.934;2023-02-28T01:40:56;1.80;99.90
5174;DHT22;2606;50.934;6.934;2023-02-28T01:43:26;1.70;99.90
5174;DHT22;2606;50.934;6.934;2023-02-28T01:45:54;1.70;99.90
5174;DHT22;2606;50.934;6.934;2023-02-28T01:48:29;1.70;99.90
5174;DHT22;2606;50.934;6.934;2023-02-28T01:50:58;1.70;99.90
5174;DHT22;2606;50.934;6.934;2023-02-28T01:53:34;1.70;99.90
5174;DHT22;2606;50.934;6.934;2023-02-28T01:56:04;1.60;99.90
5174;DHT22;2606;50.934;6.934;2023-02-28T01:58:31;1.60;99.90
5174;DHT22;2606;50.934;6.934;2023-02-28T02:00:57;1.60;99.90
5174;DHT22;2606;50.934;6.934;2023-02-28T02:03:25;1.60;99.90
5174;DHT22;2606;50.934;6.934;2023-02-28T02:05:51;1.60;99.90
5174;DHT22;2606;50.934;6.934;2023-02-28T02:08:20;1.60;99.90
5174;DHT22;2606;50.934;6.934;2023-02-28T02:10:52;1.60;99.90
5174;DHT22;2606;50.934;6.934;2023-02-28T02:13:42;1.50;99.90
5174;DHT22;2606;50.934;6.934;2023-02-28T02:19:26;1.60;99.90
5174;DHT22;2606;50.934;6.934;2023-02-28T02:22:04;1.50;99.90
5174;DHT22;2606;50.934;6.934;2023-02-28T02:33:02;1.50;99.90
5174;DHT22;2606;50.934;6.934;2023-02-28T02:35:35;1.50;99.90
5174;DHT22;2606;50.934;6.934;2023-02-28T02:38:15;1.50;99.70
5174;DHT22;2606;50.934;6.934;2023-02-28T02:40:58;1.50;99.50
5174;DHT22;2606;50.934;6.934;2023-02-28T02:43:51;1.50;99.50
5174;DHT22;2606;50.934;6.934;2023-02-28T02:46:23;1.60;99.10
5174;DHT22;2606;50.934;6.934;2023-02-28T02:48:51;1.40;98.80
5174;DHT22;2606;50.934;6.934;2023-02-28T02:51:22;1.40;98.60
5174;DHT22;2606;50.934;6.934;2023-02-28T02:53:55;1.40;98.60
5174;DHT22;2606;50.934;6.934;2023-02-28T02:56:26;1.40;98.50
5174;DHT22;2606;50.934;6.934;2023-02-28T02:58:55;1.40;98.50
5174;DHT22;2606;50.934;6.934;2023-02-28T03:01:25;1.40;98.40
5174;DHT22;2606;50.934;6.934;2023-02-28T03:03:59;1.40;98.30
5174;DHT22;2606;50.934;6.934;2023-02-28T03:06:26;1.30;98.30
5174;DHT22;2606;50.934;6.934;2023-02-28T03:08:52;1.30;98.00
5174;DHT22;2606;50.934;6.934;2023-02-28T03:11:18;1.30;97.90
5174;DHT22;2606;50.934;6.934;2023-02-28T03:21:43;1.30;97.60
5174;DHT22;2606;50.934;6.934;2023-02-28T03:24:12;1.20;97.30
5174;DHT22;2606;50.934;6.934;2023-02-28T03:26:43;1.20;97.30
5174;DHT22;2606;50.934;6.934;2023-02-28T03:29:23;1.20;97.00
5174;DHT22;2606;50.934;6.934;2023-02-28T03:32:08;1.20;97.00
5174;DHT22;2606;50.934;6.934;2023-02-28T03:34:46;1.20;96.80
5174;DHT22;2606;50.934;6.934;2023-02-28T03:37:20;1.20;96.80
5174;DHT22;2606;50.934;6.934;2023-02-28T03:39:55;1.20;96.60
5174;DHT22;2606;50.934;6.934;2023-02-28T03:42:24;1.20;96.70
5174;DHT22;2606;50.934;6.934;2023-02-28T03:44:55;1.20;96.70
5174;DHT22;2606;50.934;6.934;2023-02-28T03:47:32;1.20;96.60
5174;DHT22;2606;50.934;6.934;2023-02-28T03:50:03;1.20;96.50
5174;DHT22;2606;50.934;6.934;2023-02-28T03:52:34;1.20;96.40
5174;DHT22;2606;50.934;6.934;2023-02-28T03:55:04;1.10;96.20
5174;DHT22;2606;50.934;6.934;2023-02-28T04:00:02;1.10;96.20
5174;DHT22;2606;50.934;6.934;2023-02-28T04:02:31;1.10;96.20
5174;DHT22;2606;50.934;6.934;2023-02-28T04:04:57;1.10;96.20
5174;DHT22;2606;50.934;6.934;2023-02-28T04:07:22;1.10;96.30
5174;DHT22;2606;50.934;6.934;2023-02-28T04:09:48;1.00;96.40
5174;DHT22;2606;50.934;6.934;2023-02-28T04:12:13;1.00;96.60
5174;DHT22;2606;50.934;6.934;2023-02-28T04:14:39;1.00;96.80
5174;DHT22;2606;50.934;6.934;2023-02-28T04:17:05;1.00;97.10
5174;DHT22;2606;50.934;6.934;2023-02-28T04:19:30;1.00;97.40
5174;DHT22;2606;50.934;6.934;2023-02-28T04:21:56;1.00;97.90
5174;DHT22;2606;50.934;6.934;2023-02-28T04:24:24;1.00;98.20
5174;DHT22;2606;50.934;6.934;2023-02-28T04:26:53;0.90;98.60
5174;DHT22;2606;50.934;6.934;2023-02-28T04:29:30;0.90;98.70
5174;DHT22;2606;50.934;6.934;2023-02-28T04:31:56;0.90;99.00
5174;DHT22;2606;50.934;6.934;2023-02-28T04:34:32;0.90;99.10
5174;DHT22;2606;50.934;6.934;2023-02-28T04:36:58;0.90;99.20
5174;DHT22;2606;50.934;6.934;2023-02-28T04:39:28;0.90;99.20
5174;DHT22;2606;50.934;6.934;2023-02-28T04:41:55;0.90;99.40
5174;DHT22;2606;50.934;6.934;2023-02-28T04:44:21;0.90;99.40
5174;DHT22;2606;50.934;6.934;2023-02-28T04:46:48;0.90;99.50
5174;DHT22;2606;50.934;6.934;2023-02-28T04:49:14;0.90;99.50
5174;DHT22;2606;50.934;6.934;2023-02-28T04:51:41;0.90;99.40
5174;DHT22;2606;50.934;6.934;2023-02-28T04:54:06;0.90;99.60
5174;DHT22;2606;50.934;6.934;2023-02-28T04:56:32;0.90;99.60
5174;DHT22;2606;50.934;6.934;2023-02-28T04:58:58;0.90;99.60
5174;DHT22;2606;50.934;6.934;2023-02-28T05:01:28;0.90;99.40
5174;DHT22;2606;50.934;6.934;2023-02-28T05:03:56;0.90;99.20
5174;DHT22;2606;50.934;6.934;2023-02-28T05:06:24;0.90;98.90
5174;DHT22;2606;50.934;6.934;2023-02-28T05:08:50;0.80;98.90
5174;DHT22;2606;50.934;6.934;2023-02-28T05:11:21;0.80;98.80
5174;DHT22;2606;50.934;6.934;2023-02-28T05:13:47;0.80;98.90
5174;DHT22;2606;50.934;6.934;2023-02-28T05:16:14;0.80;98.90
5174;DHT22;2606;50.934;6.934;2023-02-28T05:18:40;0.80;98.90
5174;DHT22;2606;50.934;6.934;2023-02-28T05:21:12;0.70;99.00
5174;DHT22;2606;50.934;6.934;2023-02-28T05:23:43;0.70;99.00
5174;DHT22;2606;50.934;6.934;2023-02-28T05:26:08;0.70;99.00
5174;DHT22;2606;50.934;6.934;2023-02-28T05:28:34;0.70;99.10
5174;DHT22;2606;50.934;6.934;2023-02-28T05:30:59;0.70;98.90
5174;DHT22;2606;50.934;6.934;2023-02-28T05:33:25;0.70;98.90
5174;DHT22;2606;50.934;6.934;2023-02-28T05:35:50;0.60;98.90
5174;DHT22;2606;50.934;6.934;2023-02-28T05:38:16;0.60;99.00
5174;DHT22;2606;50.934;6.934;2023-02-28T05:40:42;0.60;98.80
5174;DHT22;2606;50.934;6.934;2023-02-28T05:43:10;0.60;98.70
5174;DHT22;2606;50.934;6.934;2023-02-28T05:45:37;0.60;98.60
5174;DHT22;2606;50.934;6.934;2023-02-28T05:48:02;0.50;98.50
5174;DHT22;2606;50.934;6.934;2023-02-28T05:50:28;0.50;98.50
5174;DHT22;2606;50.934;6.934;2023-02-28T05:52:53;0.50;98.30
5174;DHT22;2606;50.934;6.934;2023-02-28T05:55:19;0.50;98.20
5174;DHT22;2606;50.934;6.934;2023-02-28T05:57:44;0.60;98.30
5174;DHT22;2606;50.934;6.934;2023-02-28T06:00:11;0.60;98.10
5174;DHT22;2606;50.934;6.934;2023-02-28T06:02:39;0.60;97.90
5174;DHT22;2606;50.934;6.934;2023-02-28T06:05:07;0.60;97.80
5174;DHT22;2606;50.934;6.934;2023-02-28T06:07:37;0.60;97.40
5174;DHT22;2606;50.934;6.934;2023-02-28T06:10:02;0.60;97.40
5174;DHT22;2606;50.934;6.934;2023-02-28T06:12:28;0.60;97.30
5174;DHT22;2606;50.934;6.934;2023-02-28T06:14:54;0.60;97.40
5174;DHT22;2606;50.934;6.934;2023-02-28T06:17:19;0.60;97.30
5174;DHT22;2606;50.934;6.934;2023-02-28T06:19:45;0.60;97.40
5174;DHT22;2606;50.934;6.934;2023-02-28T06:22:10;0.60;97.40
5174;DHT22;2606;50.934;6.934;2023-02-28T06:24:36;0.70;97.50
5174;DHT22;2606;50.934;6.934;2023-02-28T06:27:02;0.70;97.40
5174;DHT22;2606;50.934;6.934;2023-02-28T06:29:31;0.70;97.40
5174;DHT22;2606;50.934;6.934;2023-02-28T06:31:57;0.70;97.00
5174;DHT22;2606;50.934;6.934;2023-02-28T06:34:22;0.70;97.10
5174;DHT22;2606;50.934;6.934;2023-02-28T06:36:50;0.80;97.00
5174;DHT22;2606;50.934;6.934;2023-02-28T06:39:16;0.80;96.70
5174;DHT22;2606;50.934;6.934;2023-02-28T06:41:42;0.80;96.60
5174;DHT22;2606;50.934;6.934;2023-02-28T06:44:16;0.90;96.70
5174;DHT22;2606;50.934;6.934;2023-02-28T06:46:42;0.90;96.50
5174;DHT22;2606;50.934;6.934;2023-02-28T06:49:08;0.90;96.40
5174;DHT22;2606;50.934;6.934;2023-02-28T06:51:35;0.90;96.20
5174;DHT22;2606;50.934;6.934;2023-02-28T06:54:01;0.90;95.90
5174;DHT22;2606;50.934;6.934;2023-02-28T06:56:27;0.90;95.90
5174;DHT22;2606;50.934;6.934;2023-02-28T06:58:53;0.90;95.70
5174;DHT22;2606;50.934;6.934;2023-02-28T07:01:19;0.90;95.70
5174;DHT22;2606;50.934;6.934;2023-02-28T07:03:45;0.90;95.80
5174;DHT22;2606;50.934;6.934;2023-02-28T07:06:11;0.90;95.90
5174;DHT22;2606;50.934;6.934;2023-02-28T07:08:37;0.90;95.90
5174;DHT22;2606;50.934;6.934;2023-02-28T07:11:03;0.90;96.00
5174;DHT22;2606;50.934;6.934;2023-02-28T07:13:29;0.90;96.00
5174;DHT22;2606;50.934;6.934;2023-02-28T07:15:58;1.00;95.90
5174;DHT22;2606;50.934;6.934;2023-02-28T07:18:24;1.00;95.90
5174;DHT22;2606;50.934;6.934;2023-02-28T07:20:49;1.00;95.90
5174;DHT22;2606;50.934;6.934;2023-02-28T07:23:15;1.10;95.80
5174;DHT22;2606;50.934;6.934;2023-02-28T07:25:40;1.10;95.60
5174;DHT22;2606;50.934;6.934;2023-02-28T07:28:06;1.10;95.40
5174;DHT22;2606;50.934;6.934;2023-02-28T07:30:32;1.10;95.10
5174;DHT22;2606;50.934;6.934;2023-02-28T07:32:57;1.20;95.30
5174;DHT22;2606;50.934;6.934;2023-02-28T07:35:23;1.20;95.20
5174;DHT22;2606;50.934;6.934;2023-02-28T07:37:49;1.30;95.30
5174;DHT22;2606;50.934;6.934;2023-02-28T07:40:15;1.40;95.20
5174;DHT22;2606;50.934;6.934;2023-02-28T07:42:41;1.50;94.80
5174;DHT22;2606;50.934;6.934;2023-02-28T07:45:08;1.50;93.70
5174;DHT22;2606;50.934;6.934;2023-02-28T07:47:37;1.50;93.40
5174;DHT22;2606;50.934;6.934;2023-02-28T07:50:03;1.50;93.30
5174;DHT22;2606;50.934;6.934;2023-02-28T07:52:29;1.60;93.10
5174;DHT22;2606;50.934;6.934;2023-02-28T07:54:54;1.60;92.70
5174;DHT22;2606;50.934;6.934;2023-02-28T07:57:20;1.60;92.60
5174;DHT22;2606;50.934;6.934;2023-02-28T07:59:45;1.70;92.40
5174;DHT22;2606;50.934;6.934;2023-02-28T08:02:15;1.80;92.40
5174;DHT22;2606;50.934;6.934;2023-02-28T08:04:41;1.80;91.90
5174;DHT22;2606;50.934;6.934;2023-02-28T08:07:07;1.80;91.30
5174;DHT22;2606;50.934;6.934;2023-02-28T08:09:33;1.80;91.00
5174;DHT22;2606;50.934;6.934;2023-02-28T08:11:59;1.80;91.00
5174;DHT22;2606;50.934;6.934;2023-02-28T08:14:25;1.90;90.60
5174;DHT22;2606;50.934;6.934;2023-02-28T08:16:51;1.90;90.30
5174;DHT22;2606;50.934;6.934;2023-02-28T08:19:16;1.90;90.10
5174;DHT22;2606;50.934;6.934;2023-02-28T08:21:42;2.00;89.20
5174;DHT22;2606;50.934;6.934;2023-02-28T08:24:08;2.00;88.20
5174;DHT22;2606;50.934;6.934;2023-02-28T08:26:33;2.10;87.80
5174;DHT22;2606;50.934;6.934;2023-02-28T08:28:59;2.10;87.80
5174;DHT22;2606;50.934;6.934;2023-02-28T08:31:24;2.10;86.70
5174;DHT22;2606;50.934;6.934;2023-02-28T08:33:50;2.20;86.30
5174;DHT22;2606;50.934;6.934;2023-02-28T08:36:18;2.30;84.70
5174;DHT22;2606;50.934;6.934;2023-02-28T08:38:44;2.30;84.20
5174;DHT22;2606;50.934;6.934;2023-02-28T08:41:11;2.40;83.30
5174;DHT22;2606;50.934;6.934;2023-02-28T08:43:38;2.50;82.30
5174;DHT22;2606;50.934;6.934;2023-02-28T08:46:04;2.50;81.60
5174;DHT22;2606;50.934;6.934;2023-02-28T08:48:32;2.60;80.50
5174;DHT22;2606;50.934;6.934;2023-02-28T08:51:04;2.70;78.90
5174;DHT22;2606;50.934;6.934;2023-02-28T08:53:31;2.70;77.20
5174;DHT22;2606;50.934;6.934;2023-02-28T08:56:04;2.80;76.50
5174;DHT22;2606;50.934;6.934;2023-02-28T08:58:30;2.80;75.50
5174;DHT22;2606;50.934;6.934;2023-02-28T09:00:56;2.90;74.20
5174;DHT22;2606;50.934;6.934;2023-02-28T09:03:22;3.00;74.20
5174;DHT22;2606;50.934;6.934;2023-02-28T09:05:59;3.00;73.90
5174;DHT22;2606;50.934;6.934;2023-02-28T09:08:26;3.10;72.70
5174;DHT22;2606;50.934;6.934;2023-02-28T09:10:52;3.20;71.90
5174;DHT22;2606;50.934;6.934;2023-02-28T09:13:18;3.30;69.10
5174;DHT22;2606;50.934;6.934;2023-02-28T09:15:44;3.30;67.60
5174;DHT22;2606;50.934;6.934;2023-02-28T09:18:10;3.40;66.80
5174;DHT22;2606;50.934;6.934;2023-02-28T09:20:42;3.40;67.10
5174;DHT22;2606;50.934;6.934;2023-02-28T09:23:10;3.50;67.70
5174;DHT22;2606;50.934;6.934;2023-02-28T09:25:37;3.60;67.50
5174;DHT22;2606;50.934;6.934;2023-02-28T09:28:03;3.80;65.00
5174;DHT22;2606;50.934;6.934;2023-02-28T09:30:30;3.90;63.70
5174;DHT22;2606;50.934;6.934;2023-02-28T09:32:56;4.00;62.50
5174;DHT22;2606;50.934;6.934;2023-02-28T09:35:23;4.00;62.00
5174;DHT22;2606;50.934;6.934;2023-02-28T09:37:50;4.10;61.90
5174;DHT22;2606;50.934;6.934;2023-02-28T09:40:18;4.20;61.30
5174;DHT22;2606;50.934;6.934;2023-02-28T09:42:47;4.30;60.90
5174;DHT22;2606;50.934;6.934;2023-02-28T09:45:35;4.30;58.80
5174;DHT22;2606;50.934;6.934;2023-02-28T09:51:23;4.50;57.20
5174;DHT22;2606;50.934;6.934;2023-02-28T09:53:53;4.70;57.10
5174;DHT22;2606;50.934;6.934;2023-02-28T09:56:25;4.90;56.80
5174;DHT22;2606;50.934;6.934;2023-02-28T09:59:09;5.30;57.60
5174;DHT22;2606;50.934;6.934;2023-02-28T10:06:54;6.80;51.80
5174;DHT22;2606;50.934;6.934;2023-02-28T10:09:30;7.10;50.10
5174;DHT22;2606;50.934;6.934;2023-02-28T10:12:02;7.20;49.20
5174;DHT22;2606;50.934;6.934;2023-02-28T10:14:31;7.50;49.10
5174;DHT22;2606;50.934;6.934;2023-02-28T10:17:15;7.60;46.20
5174;DHT22;2606;50.934;6.934;2023-02-28T10:24:47;8.10;44.50
5174;DHT22;2606;50.934;6.934;2023-02-28T10:27:24;8.20;44.10
5174;DHT22;2606;50.934;6.934;2023-02-28T10:29:53;8.30;43.50
5174;DHT22;2606;50.934;6.934;2023-02-28T10:32:25;8.50;43.80
5174;DHT22;2606;50.934;6.934;2023-02-28T10:35:26;8.80;43.50
5174;DHT22;2606;50.934;6.934;2023-02-28T10:37:57;9.10;42.50
5174;DHT22;2606;50.934;6.934;2023-02-28T10:42:57;9.30;41.10
5174;DHT22;2606;50.934;6.934;2023-02-28T10:45:28;9.30;40.90
5174;DHT22;2606;50.934;6.934;2023-02-28T10:52:53;9.40;40.00
5174;DHT22;2606;50.934;6.934;2023-02-28T10:55:25;9.40;39.90
5174;DHT22;2606;50.934;6.934;2023-02-28T10:57:51;9.30;39.20
5174;DHT22;2606;50.934;6.934;2023-02-28T11:00:20;9.00;39.20
5174;DHT22;2606;50.934;6.934;2023-02-28T11:02:47;9.10;40.50
5174;DHT22;2606;50.934;6.934;2023-02-28T11:05:32;9.30;39.70
5174;DHT22;2606;50.934;6.934;2023-02-28T11:08:16;9.10;39.20
5174;DHT22;2606;50.934;6.934;2023-02-28T11:10:47;9.00;40.10
5174;DHT22;2606;50.934;6.934;2023-02-28T11:13:17;8.90;40.00
5174;DHT22;2606;50.934;6.934;2023-02-28T11:15:53;9.00;41.00
5174;DHT22;2606;50.934;6.934;2023-02-28T11:18:53;9.40;40.50
5174;DHT22;2606;50.934;6.934;2023-02-28T11:21:25;9.80;40.30
5174;DHT22;2606;50.934;6.934;2023-02-28T11:26:45;10.30;37.10
5174;DHT22;2606;50.934;6.934;2023-02-28T11:29:26;10.40;37.20
5174;DHT22;2606;50.934;6.934;2023-02-28T11:34:36;10.70;37.00
5174;DHT22;2606;50.934;6.934;2023-02-28T11:37:03;10.80;36.20
5174;DHT22;2606;50.934;6.934;2023-02-28T11:39:33;10.80;36.10
5174;DHT22;2606;50.934;6.934;2023-02-28T11:47:53;10.20;36.80
5174;DHT22;2606;50.934;6.934;2023-02-28T11:50:45;9.90;38.60
5174;DHT22;2606;50.934;6.934;2023-02-28T11:56:09;9.10;39.00
5174;DHT22;2606;50.934;6.934;2023-02-28T11:58:55;8.50;40.20
5174;DHT22;2606;50.934;6.934;2023-02-28T12:04:24;7.80;42.10
5174;DHT22;2606;50.934;6.934;2023-02-28T12:20:25;7.10;44.10
5174;DHT22;2606;50.934;6.934;2023-02-28T12:28:21;6.90;44.60
5174;DHT22;2606;50.934;6.934;2023-02-28T12:31:21;6.80;44.10
5174;DHT22;2606;50.934;6.934;2023-02-28T12:33:55;6.80;44.50
5174;DHT22;2606;50.934;6.934;2023-02-28T12:36:22;6.80;44.60
5174;DHT22;2606;50.934;6.934;2023-02-28T12:38:58;6.80;45.00
5174;DHT22;2606;50.934;6.934;2023-02-28T12:41:39;6.80;45.20
5174;DHT22;2606;50.934;6.934;2023-02-28T12:44:12;6.70;44.80
5174;DHT22;2606;50.934;6.934;2023-02-28T12:46:46;6.60;45.30
5174;DHT22;2606;50.934;6.934;2023-02-28T12:50:07;6.50;45.80
5174;DHT22;2606;50.934;6.934;2023-02-28T12:52:05;6.40;46.10
5174;DHT22;2606;50.934;6.934;2023-02-28T12:57:58;6.30;46.80
5174;DHT22;2606;50.934;6.934;2023-02-28T13:00:38;6.30;46.90
5174;DHT22;2606;50.934;6.934;2023-02-28T13:06:08;6.20;47.00
5174;DHT22;2606;50.934;6.934;2023-02-28T13:09:03;6.20;47.20
5174;DHT22;2606;50.934;6.934;2023-02-28T13:11:46;6.20;47.10
5174;DHT22;2606;50.934;6.934;2023-02-28T13:19:34;6.10;48.50
5174;DHT22;2606;50.934;6.934;2023-02-28T13:22:01;6.10;49.00
5174;DHT22;2606;50.934;6.934;2023-02-28T13:29:50;6.20;49.70
5174;DHT22;2606;50.934;6.934;2023-02-28T13:32:35;6.20;49.70
5174;DHT22;2606;50.934;6.934;2023-02-28T13:37:42;6.20;49.60
5174;DHT22;2606;50.934;6.934;2023-02-28T13:40:33;6.20;49.40
5174;DHT22;2606;50.934;6.934;2023-02-28T13:43:02;6.30;49.50
5174;DHT22;2606;50.934;6.934;2023-02-28T13:45:29;6.30;49.70
5174;DHT22;2606;50.934;6.934;2023-02-28T13:48:05;6.30;49.90
5174;DHT22;2606;50.934;6.934;2023-02-28T13:50:44;6.30;49.70
5174;DHT22;2606;50.934;6.934;2023-02-28T13:58:57;6.40;49.30
5174;DHT22;2606;50.934;6.934;2023-02-28T14:04:40;6.40;48.40
5174;DHT22;2606;50.934;6.934;2023-02-28T14:07:21;6.40;48.30
5174;DHT22;2606;50.934;6.934;2023-02-28T14:10:05;6.40;48.30
5174;DHT22;2606;50.934;6.934;2023-02-28T14:15:43;6.50;48.90
5174;DHT22;2606;50.934;6.934;2023-02-28T14:18:23;6.50;48.90
5174;DHT22;2606;50.934;6.934;2023-02-28T14:20:53;6.40;48.80
5174;DHT22;2606;50.934;6.934;2023-02-28T14:23:50;6.40;49.20
5174;DHT22;2606;50.934;6.934;2023-02-28T14:31:44;6.50;49.50
5174;DHT22;2606;50.934;6.934;2023-02-28T14:34:37;6.50;49.70
5174;DHT22;2606;50.934;6.934;2023-02-28T14:37:05;6.50;49.90
5174;DHT22;2606;50.934;6.934;2023-02-28T14:39:33;6.50;50.50
5174;DHT22;2606;50.934;6.934;2023-02-28T14:42:00;6.50;49.30
5174;DHT22;2606;50.934;6.934;2023-02-28T14:44:30;6.50;49.60
5174;DHT22;2606;50.934;6.934;2023-02-28T14:47:00;6.50;49.90
5174;DHT22;2606;50.934;6.934;2023-02-28T14:49:51;6.50;50.00
5174;DHT22;2606;50.934;6.934;2023-02-28T14:52:23;6.50;50.30
5174;DHT22;2606;50.934;6.934;2023-02-28T14:55:03;6.60;50.00
5174;DHT22;2606;50.934;6.934;2023-02-28T14:57:41;6.50;50.10
5174;DHT22;2606;50.934;6.934;2023-02-28T15:02:41;6.50;50.20
5174;DHT22;2606;50.934;6.934;2023-02-28T15:05:17;6.50;50.60
5174;DHT22;2606;50.934;6.934;2023-02-28T15:07:45;6.50;50.00
5174;DHT22;2606;50.934;6.934;2023-02-28T15:12:40;6.40;49.50
5174;DHT22;2606;50.934;6.934;2023-02-28T15:15:15;6.40;49.30
5174;DHT22;2606;50.934;6.934;2023-02-28T15:17:44;6.40;49.30
5174;DHT22;2606;50.934;6.934;2023-02-28T15:20:13;6.40;49.70
5174;DHT22;2606;50.934;6.934;2023-02-28T15:22:39;6.40;49.70
5174;DHT22;2606;50.934;6.934;2023-02-28T15:25:06;6.40;49.20
5174;DHT22;2606;50.934;6.934;2023-02-28T15:27:34;6.40;49.40
5174;DHT22;2606;50.934;6.934;2023-02-28T15:30:07;6.40;49.70
5174;DHT22;2606;50.934;6.934;2023-02-28T15:32:35;6.40;49.40
5174;DHT22;2606;50.934;6.934;2023-02-28T15:38:25;6.40;49.50
5174;DHT22;2606;50.934;6.934;2023-02-28T15:40:54;6.40;50.00
5174;DHT22;2606;50.934;6.934;2023-02-28T15:48:35;6.40;49.70
5174;DHT22;2606;50.934;6.934;2023-02-28T15:53:57;6.40;49.80
5174;DHT22;2606;50.934;6.934;2023-02-28T15:56:48;6.40;50.20
5174;DHT22;2606;50.934;6.934;2023-02-28T15:59:18;6.30;50.70
5174;DHT22;2606;50.934;6.934;2023-02-28T16:01:44;6.30;50.80
5174;DHT22;2606;50.934;6.934;2023-02-28T16:04:19;6.30;51.00
5174;DHT22;2606;50.934;6.934;2023-02-28T16:07:12;6.30;51.00
5174;DHT22;2606;50.934;6.934;2023-02-28T16:09:38;6.30;51.20
5174;DHT22;2606;50.934;6.934;2023-02-28T16:12:03;6.30;51.50
5174;DHT22;2606;50.934;6.934;2023-02-28T16:14:31;6.40;51.70
5174;DHT22;2606;50.934;6.934;2023-02-28T16:17:03;6.40;52.00
5174;DHT22;2606;50.934;6.934;2023-02-28T16:19:29;6.40;52.00
5174;DHT22;2606;50.934;6.934;2023-02-28T16:21:54;6.40;52.20
5174;DHT22;2606;50.934;6.934;2023-02-28T16:24:20;6.40;52.40
5174;DHT22;2606;50.934;6.934;2023-02-28T16:26:47;6.40;52.70
5174;DHT22;2606;50.934;6.934;2023-02-28T16:29:23;6.30;52.80
5174;DHT22;2606;50.934;6.934;2023-02-28T16:31:50;6.30;52.60
5174;DHT22;2606;50.934;6.934;2023-02-28T16:34:15;6.30;52.80
5174;DHT22;2606;50.934;6.934;2023-02-28T16:36:41;6.30;52.10
5174;DHT22;2606;50.934;6.934;2023-02-28T16:39:07;6.30;52.60
5174;DHT22;2606;50.934;6.934;2023-02-28T16:41:33;6.20;52.80
5174;DHT22;2606;50.934;6.934;2023-02-28T16:43:59;6.20;53.10
5174;DHT22;2606;50.934;6.934;2023-02-28T16:46:33;6.20;53.10
5174;DHT22;2606;50.934;6.934;2023-02-28T16:48:59;6.20;53.10
5174;DHT22;2606;50.934;6.934;2023-02-28T16:51:24;6.20;53.30
5174;DHT22;2606;50.934;6.934;2023-02-28T16:53:50;6.20;53.70
5174;DHT22;2606;50.934;6.934;2023-02-28T16:56:18;6.10;53.70
5174;DHT22;2606;50.934;6.934;2023-02-28T16:58:44;6.10;53.80
5174;DHT22;2606;50.934;6.934;2023-02-28T17:01:11;6.10;53.70
5174;DHT22;2606;50.934;6.934;2023-02-28T17:03:36;6.10;53.90
5174;DHT22;2606;50.934;6.934;2023-02-28T17:06:03;6.10;54.10
5174;DHT22;2606;50.934;6.934;2023-02-28T17:08:30;6.10;55.10
5174;DHT22;2606;50.934;6.934;2023-02-28T17:10:57;6.10;54.60
5174;DHT22;2606;50.934;6.934;2023-02-28T17:13:23;6.10;54.80
5174;DHT22;2606;50.934;6.934;2023-02-28T17:16:05;6.10;54.90
5174;DHT22;2606;50.934;6.934;2023-02-28T17:18:36;6.10;55.30
5174;DHT22;2606;50.934;6.934;2023-02-28T17:21:09;6.10;55.50
5174;DHT22;2606;50.934;6.934;2023-02-28T17:23:37;6.00;55.40
5174;DHT22;2606;50.934;6.934;2023-02-28T17:26:04;6.00;55.60
5174;DHT22;2606;50.934;6.934;2023-02-28T17:28:32;6.00;55.90
5174;DHT22;2606;50.934;6.934;2023-02-28T17:30:57;6.00;56.30
5174;DHT22;2606;50.934;6.934;2023-02-28T17:33:23;5.90;56.50
5174;DHT22;2606;50.934;6.934;2023-02-28T17:35:52;5.90;56.90
5174;DHT22;2606;50.934;6.934;2023-02-28T17:38:18;5.90;57.20
5174;DHT22;2606;50.934;6.934;2023-02-28T17:40:44;5.90;57.60
5174;DHT22;2606;50.934;6.934;2023-02-28T17:43:10;5.90;58.00
5174;DHT22;2606;50.934;6.934;2023-02-28T17:45:36;5.80;58.30
5174;DHT22;2606;50.934;6.934;2023-02-28T17:48:02;5.70;58.50
5174;DHT22;2606;50.934;6.934;2023-02-28T17:50:32;5.70;58.90
5174;DHT22;2606;50.934;6.934;2023-02-28T17:55:37;5.70;59.50
5174;DHT22;2606;50.934;6.934;2023-02-28T17:58:04;5.70;60.00
5174;DHT22;2606;50.934;6.934;2023-02-28T18:00:30;5.70;60.40
5174;DHT22;2606;50.934;6.934;2023-02-28T18:02:58;5.60;60.60
5174;DHT22;2606;50.934;6.934;2023-02-28T18:05:24;5.70;61.00
5174;DHT22;2606;50.934;6.934;2023-02-28T18:07:50;5.70;60.90
5174;DHT22;2606;50.934;6.934;2023-02-28T18:10:19;5.60;61.00
5174;DHT22;2606;50.934;6.934;2023-02-28T18:12:50;5.60;61.60
5174;DHT22;2606;50.934;6.934;2023-02-28T18:15:17;5.60;62.00
5174;DHT22;2606;50.934;6.934;2023-02-28T18:17:45;5.50;62.90
5174;DHT22;2606;50.934;6.934;2023-02-28T18:20:11;5.50;65.00
5174;DHT22;2606;50.934;6.934;2023-02-28T18:22:39;5.40;65.70
5174;DHT22;2606;50.934;6.934;2023-02-28T18:25:06;5.40;66.20
5174;DHT22;2606;50.934;6.934;2023-02-28T18:27:34;5.40;67.80
5174;DHT22;2606;50.934;6.934;2023-02-28T18:30:00;5.30;68.70
5174;DHT22;2606;50.934;6.934;2023-02-28T18:32:25;5.30;69.70
5174;DHT22;2606;50.934;6.934;2023-02-28T18:34:51;5.30;70.90
5174;DHT22;2606;50.934;6.934;2023-02-28T18:37:17;5.20;71.80
5174;DHT22;2606;50.934;6.934;2023-02-28T18:39:43;5.20;72.90
5174;DHT22;2606;50.934;6.934;2023-02-28T18:42:08;5.10;73.10
5174;DHT22;2606;50.934;6.934;2023-02-28T18:44:36;5.10;74.60
5174;DHT22;2606;50.934;6.934;2023-02-28T18:47:01;5.10;75.60
5174;DHT22;2606;50.934;6.934;2023-02-28T18:49:27;5.00;75.90
5174;DHT22;2606;50.934;6.934;2023-02-28T18:51:53;5.00;76.80
5174;DHT22;2606;50.934;6.934;2023-02-28T18:54:18;4.90;77.90
5174;DHT22;2606;50.934;6.934;2023-02-28T18:56:44;4.90;79.20
5174;DHT22;2606;50.934;6.934;2023-02-28T18:59:10;4.80;79.00
5174;DHT22;2606;50.934;6.934;2023-02-28T19:01:36;4.80;79.60
5174;DHT22;2606;50.934;6.934;2023-02-28T19:04:02;4.80;80.40
5174;DHT22;2606;50.934;6.934;2023-02-28T19:06:29;4.80;80.70